Time;durP1;ratioP1;P1;durP2;ratioP2;P2;SDS_P1;SDS_P2;PMS_P1;PMS_P2;Temp;Humidity;BMP_temperature;BMP_pressure;BME280_temperature;BME280_humidity;BME280_pressure;Samples;Min_cycle;Max_cycle;Signal;HPM_P1;HPM_P2
2023/12/29 00:02:06;;;;;;;4.73;1.27;;;;;;;4.07;97.38;100109.31;5072411;28;20227;-65
2023/12/29 00:04:33;;;;;;;0.80;0.80;;;;;;;4.05;97.42;100110.97;5074602;28;20200;-66
2023/12/29 00:06:59;;;;;;;1.13;1.13;;;;;;;4.02;97.62;100105.88;5072718;28;20206;-66
2023/12/29 00:09:26;;;;;;;0.77;0.77;;;;;;;4.00;97.50;100107.56;5072590;28;20245;-66
2023/12/29 00:11:54;;;;;;;1.17;1.17;;;;;;;3.99;97.75;100110.91;5073224;28;20638;-66
2023/12/29 00:14:21;;;;;;;1.10;1.10;;;;;;;3.86;97.60;100091.38;5072312;28;20204;-66
2023/12/29 00:16:49;;;;;;;0.77;0.77;;;;;;;3.93;97.92;100101.59;5072381;28;20200;-66
2023/12/29 00:19:15;;;;;;;0.90;0.90;;;;;;;3.93;97.46;100099.03;5072089;28;20200;-65
2023/12/29 00:21:42;;;;;;;0.97;0.97;;;;;;;3.91;97.84;100098.16;5072554;28;20623;-66
2023/12/29 00:24:09;;;;;;;0.90;0.90;;;;;;;3.90;97.58;100096.50;5073020;28;20200;-65
2023/12/29 00:26:35;;;;;;;0.70;0.70;;;;;;;3.88;97.76;100098.16;5075336;28;20204;-65
2023/12/29 00:29:03;;;;;;;0.90;0.90;;;;;;;3.89;97.59;100097.31;5071595;28;20282;-66
2023/12/29 00:31:29;;;;;;;1.20;1.20;;;;;;;3.89;97.77;100093.94;5071714;28;20240;-66
2023/12/29 00:33:58;;;;;;;0.67;0.63;;;;;;;3.61;97.91;100052.31;5071471;28;20192;-66
2023/12/29 00:36:25;;;;;;;1.37;1.37;;;;;;;3.81;98.00;100081.22;5071332;28;20212;-65
2023/12/29 00:38:52;;;;;;;0.60;0.60;;;;;;;3.86;97.73;100093.91;5072093;28;20199;-66
2023/12/29 00:41:18;;;;;;;1.20;1.20;;;;;;;3.82;97.96;100085.41;5069558;28;20204;-65
2023/12/29 00:43:45;;;;;;;0.93;0.93;;;;;;;3.82;98.10;100093.03;5071625;28;20212;-66
2023/12/29 00:46:15;;;;;;;0.73;0.73;;;;;;;3.81;97.89;100091.34;5072088;28;20191;-66
2023/12/29 00:48:42;;;;;;;0.83;0.83;;;;;;;3.62;98.14;100071.72;5071350;28;20234;-66
2023/12/29 00:51:10;;;;;;;1.47;1.47;;;;;;;3.68;98.57;100090.38;5072279;28;20220;-66
2023/12/29 00:53:37;;;;;;;6.43;1.20;;;;;;;3.68;98.59;100089.53;5071416;28;20265;-65
2023/12/29 00:56:04;;;;;;;1.30;1.30;;;;;;;3.67;98.89;100077.69;5070490;28;20219;-66
2023/12/29 00:58:31;;;;;;;1.23;1.23;;;;;;;3.68;99.09;100084.47;5071752;28;20246;-65
2023/12/29 01:00:57;;;;;;;1.00;1.00;;;;;;;3.65;98.99;100070.06;5072502;28;20714;-66
2023/12/29 01:03:24;;;;;;;0.60;0.60;;;;;;;3.62;99.00;100064.97;5072966;28;20196;-65
2023/12/29 01:05:51;;;;;;;1.00;1.00;;;;;;;3.56;99.50;100059.84;5072715;28;20632;-66
2023/12/29 01:08:19;;;;;;;0.70;0.70;;;;;;;3.56;99.59;100059.00;5071535;28;20204;-66
2023/12/29 01:10:45;;;;;;;0.77;0.77;;;;;;;3.58;99.54;100063.28;5071344;28;20660;-65
2023/12/29 01:13:12;;;;;;;1.00;1.00;;;;;;;3.55;99.21;100057.31;5071108;28;20621;-65
2023/12/29 01:15:40;;;;;;;0.63;0.63;;;;;;;3.43;100.00;100058.03;5071307;28;20265;-65
2023/12/29 01:18:07;;;;;;;1.00;1.00;;;;;;;3.43;99.95;100057.19;5071141;28;20261;-66
2023/12/29 01:20:33;;;;;;;1.23;1.23;;;;;;;3.39;99.91;100045.34;5071379;28;20196;-65
2023/12/29 01:23:00;;;;;;;1.37;1.37;;;;;;;3.36;99.79;100040.25;5071967;28;20204;-65
2023/12/29 01:25:28;;;;;;;0.63;0.63;;;;;;;3.35;100.00;100047.00;5071102;28;20293;-65
2023/12/29 01:27:55;;;;;;;1.00;1.00;;;;;;;3.34;100.00;100042.75;5070348;28;20627;-66
2023/12/29 01:30:21;;;;;;;0.80;0.80;;;;;;;3.33;100.00;100050.38;5073724;28;20622;-66
2023/12/29 01:32:48;;;;;;;0.70;0.70;;;;;;;3.31;99.78;100042.75;5071038;28;20196;-65
2023/12/29 01:35:15;;;;;;;0.60;0.60;;;;;;;3.27;99.67;100032.56;5070437;28;20269;-66
2023/12/29 01:37:43;;;;;;;0.53;0.53;;;;;;;3.25;99.86;100041.84;5071026;28;20196;-65
2023/12/29 01:40:11;;;;;;;0.63;0.63;;;;;;;3.19;100.00;100037.56;5070863;28;20553;-65
2023/12/29 01:42:39;;;;;;;0.90;0.90;;;;;;;3.18;100.00;100046.84;5070757;28;20211;-65
2023/12/29 01:45:13;;;;;;;1.43;1.43;;;;;;;3.18;99.74;100046.84;5071963;28;20195;-65
2023/12/29 01:47:40;;;;;;;1.23;1.23;;;;;;;3.17;99.58;100035.00;5070376;28;20196;-66
2023/12/29 01:50:08;;;;;;;1.57;1.57;;;;;;;3.18;99.16;100033.31;5070914;28;20557;-66
2023/12/29 01:52:36;;;;;;;0.83;0.83;;;;;;;3.15;99.52;100031.63;5072701;28;20786;-65
2023/12/29 01:55:02;;;;;;;0.90;0.90;;;;;;;3.11;99.59;100032.41;5070770;28;21755;-65
2023/12/29 01:57:29;;;;;;;1.33;1.33;;;;;;;3.09;100.00;100036.63;5068316;28;20631;-65
2023/12/29 01:59:57;;;;;;;0.93;0.93;;;;;;;3.09;100.00;100041.69;5070435;28;20211;-65
2023/12/29 02:02:24;;;;;;;0.93;0.93;;;;;;;3.06;99.94;100041.66;5072730;28;20337;-66
2023/12/29 02:04:51;;;;;;;0.80;0.80;;;;;;;3.06;100.00;100031.53;5070589;28;20196;-65
2023/12/29 02:07:19;;;;;;;1.37;1.37;;;;;;;3.06;100.00;100039.13;5069845;28;20659;-65
2023/12/29 02:09:46;;;;;;;0.80;0.80;;;;;;;3.05;100.00;100039.09;5071143;28;20557;-65
2023/12/29 02:12:12;;;;;;;0.90;0.90;;;;;;;2.97;100.00;100026.34;5070242;28;20195;-65
2023/12/29 02:14:39;;;;;;;0.97;0.97;;;;;;;3.04;100.00;100028.13;5070447;28;20196;-65
2023/12/29 02:17:15;;;;;;;0.50;0.50;;;;;;;3.02;99.68;100039.94;5070841;28;20211;-65
2023/12/29 02:19:43;;;;;;;1.60;1.60;;;;;;;2.99;99.92;100034.84;5068123;28;20249;-65
2023/12/29 02:22:11;;;;;;;0.70;0.70;;;;;;;3.01;99.94;100033.16;5071791;28;20196;-65
2023/12/29 02:24:39;;;;;;;0.70;0.70;;;;;;;2.97;99.92;100031.41;5069844;28;20211;-65
2023/12/29 02:27:29;;;;;;;0.70;0.70;;;;;;;2.94;99.44;100028.84;5069381;28;20200;-65
2023/12/29 02:30:10;;;;;;;0.77;0.77;;;;;;;2.87;98.79;100027.13;5068941;28;20200;-65
2023/12/29 02:32:40;;;;;;;0.70;0.70;;;;;;;2.81;99.12;100024.50;5070735;28;20668;-65
2023/12/29 02:35:10;;;;;;;0.60;0.60;;;;;;;2.63;99.16;100004.06;5070190;28;20210;-65
2023/12/29 02:37:38;;;;;;;1.03;1.03;;;;;;;2.67;99.54;100010.00;5070017;28;20200;-65
2023/12/29 02:40:06;;;;;;;1.00;1.00;;;;;;;2.62;100.00;100007.41;5070190;28;20246;-65
2023/12/29 02:42:34;;;;;;;1.07;1.07;;;;;;;2.60;100.00;100011.59;5072209;28;20588;-65
2023/12/29 02:45:01;;;;;;;1.43;1.43;;;;;;;2.61;100.00;100015.84;5070044;28;20246;-65
2023/12/29 02:47:28;;;;;;;0.93;0.90;;;;;;;2.65;100.00;100007.44;5071891;28;20731;-66
2023/12/29 02:49:55;;;;;;;1.10;1.10;;;;;;;2.62;100.00;100002.34;5069913;28;20730;-65
2023/12/29 02:52:22;;;;;;;0.90;0.90;;;;;;;2.56;100.00;100004.81;5070279;28;20258;-65
2023/12/29 02:54:48;;;;;;;1.53;1.53;;;;;;;2.48;100.00;99998.81;5072628;28;20250;-65
2023/12/29 02:57:15;;;;;;;1.10;1.10;;;;;;;2.42;100.00;100003.81;5069881;28;20284;-65
2023/12/29 02:59:43;;;;;;;0.83;0.83;;;;;;;2.37;100.00;100000.34;5069723;28;20199;-65
2023/12/29 03:02:10;;;;;;;1.20;1.03;;;;;;;2.27;100.00;99990.97;5070046;28;20200;-65
2023/12/29 03:04:36;;;;;;;0.70;0.70;;;;;;;2.13;100.00;99974.78;5072320;28;20192;-65
2023/12/29 03:07:03;;;;;;;0.77;0.77;;;;;;;2.18;100.00;99991.69;5069716;28;20192;-64
2023/12/29 03:09:30;;;;;;;0.77;0.77;;;;;;;2.21;100.00;99988.34;5070115;28;20270;-64
2023/12/29 03:11:57;;;;;;;1.00;1.00;;;;;;;2.21;100.00;99993.41;5068361;28;20200;-65
2023/12/29 03:14:23;;;;;;;0.73;0.73;;;;;;;2.18;100.00;99989.16;5069851;28;20204;-65
2023/12/29 03:16:51;;;;;;;1.10;1.10;;;;;;;2.20;100.00;99981.63;5069716;28;20208;-65
2023/12/29 03:19:18;;;;;;;0.60;0.60;;;;;;;2.16;100.00;99983.25;5069319;28;20261;-65
2023/12/29 03:21:45;;;;;;;0.87;0.87;;;;;;;2.11;100.00;99983.19;5074264;28;20229;-65
2023/12/29 03:24:12;;;;;;;0.80;0.80;;;;;;;2.10;100.00;99991.59;5073383;28;20196;-65
2023/12/29 03:26:38;;;;;;;0.70;0.70;;;;;;;2.06;100.00;99984.81;5074445;28;20196;-65
2023/12/29 03:29:05;;;;;;;0.93;0.93;;;;;;;2.04;100.00;99983.94;5072866;28;20204;-65
2023/12/29 03:31:32;;;;;;;1.20;1.20;;;;;;;2.02;100.00;99980.53;5075023;28;20204;-65
2023/12/29 03:34:00;;;;;;;1.77;1.23;;;;;;;2.05;100.00;99978.06;5073619;28;20204;-65
2023/12/29 03:36:26;;;;;;;0.70;0.70;;;;;;;2.06;100.00;99974.69;5072945;28;20273;-65
2023/12/29 03:38:53;;;;;;;1.23;1.23;;;;;;;2.07;100.00;99961.22;5073002;28;20203;-65
2023/12/29 03:41:20;;;;;;;0.90;0.90;;;;;;;2.08;100.00;99957.84;5072718;28;20684;-65
2023/12/29 03:43:46;;;;;;;1.00;1.00;;;;;;;2.09;100.00;99964.63;5073301;28;20196;-64
2023/12/29 03:46:17;;;;;;;1.47;1.47;;;;;;;2.14;100.00;99962.13;5071502;28;20196;-65
2023/12/29 03:48:44;;;;;;;2.07;1.97;;;;;;;2.08;100.00;99942.69;5075310;28;20644;-65
2023/12/29 03:51:12;;;;;;;1.13;1.13;;;;;;;2.19;100.00;99954.63;5073273;28;20192;-65
2023/12/29 03:53:40;;;;;;;1.47;1.47;;;;;;;2.19;100.00;99962.22;5076332;28;20203;-65
2023/12/29 03:56:08;;;;;;;0.80;0.80;;;;;;;2.20;100.00;99956.31;5072523;28;20680;-64
2023/12/29 03:58:35;;;;;;;1.07;1.07;;;;;;;2.24;100.00;99968.16;5072834;28;20196;-65
2023/12/29 04:01:01;;;;;;;0.87;0.87;;;;;;;2.23;100.00;99963.94;5073021;28;20250;-65
2023/12/29 04:03:27;;;;;;;1.23;1.23;;;;;;;2.19;100.00;99960.53;5071298;28;20205;-64
2023/12/29 04:05:54;;;;;;;0.87;0.87;;;;;;;2.14;100.00;99949.50;5069982;28;20200;-65
2023/12/29 04:08:22;;;;;;;0.77;0.77;;;;;;;2.12;100.00;99943.56;5073685;28;20204;-65
2023/12/29 04:10:49;;;;;;;1.77;1.70;;;;;;;2.08;100.00;99936.78;5073567;28;20195;-65
2023/12/29 04:13:16;;;;;;;2.33;1.37;;;;;;;2.09;100.00;99941.88;5072456;28;20208;-65
2023/12/29 04:15:43;;;;;;;0.90;0.90;;;;;;;2.11;100.00;99945.25;5071937;28;20196;-65
2023/12/29 04:18:09;;;;;;;0.77;0.77;;;;;;;2.13;100.00;99946.09;5076522;28;20261;-65
2023/12/29 04:20:36;;;;;;;1.40;0.90;;;;;;;2.13;100.00;99944.44;5072469;28;20249;-65
2023/12/29 04:23:03;;;;;;;0.90;0.90;;;;;;;2.15;100.00;99942.75;5073409;28;20204;-65
2023/12/29 04:25:31;;;;;;;0.93;0.93;;;;;;;2.15;100.00;99940.22;5074952;28;20265;-64
2023/12/29 04:27:58;;;;;;;1.03;1.03;;;;;;;2.18;100.00;99937.72;5072279;28;20188;-65
2023/12/29 04:30:25;;;;;;;0.80;0.80;;;;;;;2.16;100.00;99936.88;5074451;28;20195;-64
2023/12/29 04:32:52;;;;;;;0.80;0.80;;;;;;;2.15;100.00;99943.59;5072357;28;20196;-65
2023/12/29 04:35:18;;;;;;;0.90;0.90;;;;;;;2.15;100.00;99942.75;5072987;28;20205;-65
2023/12/29 04:37:46;;;;;;;0.97;0.97;;;;;;;2.15;100.00;99948.66;5071821;28;20261;-64
2023/12/29 04:40:13;;;;;;;1.07;1.07;;;;;;;2.16;100.00;99952.06;5072102;28;20196;-65
2023/12/29 04:42:41;;;;;;;1.07;1.07;;;;;;;2.13;100.00;99949.50;5071714;28;20262;-64
2023/12/29 04:45:08;;;;;;;2.10;2.10;;;;;;;2.08;100.00;99952.81;5072030;28;20261;-64
2023/12/29 04:47:35;;;;;;;1.00;1.00;;;;;;;2.01;100.00;99953.53;5071520;28;20554;-65
2023/12/29 04:50:02;;;;;;;0.63;0.63;;;;;;;2.00;100.00;99956.06;5073918;28;20196;-64
2023/12/29 04:52:28;;;;;;;1.37;1.37;;;;;;;1.93;100.00;99962.72;5072248;28;20259;-64
2023/12/29 04:54:55;;;;;;;0.83;0.83;;;;;;;1.74;100.00;99950.66;5072952;28;21211;-64
2023/12/29 04:57:22;;;;;;;1.23;1.23;;;;;;;1.69;100.00;99937.09;5068146;28;20215;-64
2023/12/29 04:59:50;;;;;;;0.93;0.93;;;;;;;1.73;100.00;99940.53;5071615;28;20204;-65
2023/12/29 05:02:19;;;;;;;0.80;0.80;;;;;;;1.76;100.00;99943.94;5072130;28;20279;-64
2023/12/29 05:04:46;;;;;;;0.70;0.70;;;;;;;1.76;100.00;99943.94;5070906;28;20207;-64
2023/12/29 05:07:13;;;;;;;0.60;0.60;;;;;;;1.81;100.00;99947.38;5070370;28;20200;-64
2023/12/29 05:09:39;;;;;;;0.97;0.87;;;;;;;1.84;100.00;99952.47;5071286;28;20255;-64
2023/12/29 05:12:07;;;;;;;1.10;1.10;;;;;;;1.87;100.00;99939.91;5072448;28;20200;-64
2023/12/29 05:14:33;;;;;;;1.47;1.47;;;;;;;1.90;100.00;99944.13;5074099;28;20257;-65
2023/12/29 05:17:02;;;;;;;1.23;1.23;;;;;;;1.92;100.00;99950.91;5070761;28;20773;-64
2023/12/29 05:19:28;;;;;;;1.50;1.50;;;;;;;1.93;100.00;99947.56;5074866;28;20203;-64
2023/12/29 05:21:55;;;;;;;1.70;1.70;;;;;;;1.93;100.00;99950.09;5071239;28;20196;-64
2023/12/29 05:24:22;;;;;;;0.70;0.70;;;;;;;1.92;100.00;99945.84;5071196;28;20634;-64
2023/12/29 05:26:48;;;;;;;1.37;1.37;;;;;;;1.88;100.00;99945.78;5071289;28;20192;-64
2023/12/29 05:29:15;;;;;;;1.43;1.33;;;;;;;1.93;100.00;99952.63;5073749;28;20283;-64
2023/12/29 05:31:42;;;;;;;0.70;0.70;;;;;;;1.93;100.00;99947.56;5074417;28;20242;-64
2023/12/29 05:34:10;;;;;;;2.63;0.97;;;;;;;1.93;100.00;99951.75;5071031;28;20306;-64
2023/12/29 05:36:37;;;;;;;0.70;0.70;;;;;;;1.91;100.00;99944.13;5070787;28;20215;-64
2023/12/29 05:39:04;;;;;;;1.00;1.00;;;;;;;1.92;100.00;99945.00;5070810;28;20584;-64
2023/12/29 05:41:30;;;;;;;0.80;0.80;;;;;;;1.92;100.00;99950.91;5071796;28;20283;-64
2023/12/29 05:43:58;;;;;;;0.83;0.83;;;;;;;1.89;100.00;99955.06;5071084;28;20660;-64
2023/12/29 05:46:24;;;;;;;1.20;1.20;;;;;;;1.89;100.00;99966.03;5072544;28;20286;-64
2023/12/29 05:48:52;;;;;;;1.07;1.07;;;;;;;1.88;100.00;99958.41;5073533;28;20207;-64
2023/12/29 05:51:20;;;;;;;0.90;0.90;;;;;;;1.81;100.00;99957.47;5071737;28;20224;-64
2023/12/29 05:53:47;;;;;;;0.77;0.77;;;;;;;1.86;100.00;99973.56;5075381;28;20204;-64
2023/12/29 05:56:14;;;;;;;0.90;0.90;;;;;;;1.81;100.00;99957.47;5070033;28;20265;-64
2023/12/29 05:58:41;;;;;;;0.77;0.77;;;;;;;1.76;100.00;99969.22;5070552;28;20196;-64
2023/12/29 06:01:08;;;;;;;0.73;0.73;;;;;;;1.76;100.00;99964.16;5072518;28;20328;-64
2023/12/29 06:03:35;;;;;;;1.20;1.20;;;;;;;1.80;100.00;99960.84;5069710;28;20664;-65
2023/12/29 06:06:01;;;;;;;0.77;0.77;;;;;;;1.82;100.00;99954.13;5069053;28;20211;-64
2023/12/29 06:08:29;;;;;;;0.60;0.60;;;;;;;1.83;100.00;99949.94;5065675;28;20195;-64
2023/12/29 06:10:56;;;;;;;1.03;1.03;;;;;;;1.81;100.00;99957.47;5070166;28;20208;-64
2023/12/29 06:13:23;;;;;;;0.80;0.80;;;;;;;1.82;100.00;99969.31;5071201;28;20210;-65
2023/12/29 06:15:50;;;;;;;0.70;0.70;;;;;;;1.82;100.00;99968.44;5070444;28;20200;-64
2023/12/29 06:18:17;;;;;;;0.70;0.70;;;;;;;1.82;100.00;99969.31;5070390;28;20220;-65
2023/12/29 06:20:43;;;;;;;1.57;1.57;;;;;;;1.70;100.00;99956.50;5067408;28;20200;-64
2023/12/29 06:23:10;;;;;;;0.83;0.83;;;;;;;1.73;100.00;99964.13;5068188;28;20207;-64
2023/12/29 06:25:39;;;;;;;0.77;0.77;;;;;;;1.79;100.00;99974.31;5068884;28;20199;-65
2023/12/29 06:28:06;;;;;;;0.83;0.83;;;;;;;1.80;100.00;99981.09;5072010;28;20192;-64
2023/12/29 06:30:33;;;;;;;0.70;0.70;;;;;;;1.81;100.00;99971.81;5070326;28;20200;-65
2023/12/29 06:33:00;;;;;;;1.23;1.23;;;;;;;1.82;100.00;99969.31;5070231;28;20214;-64
2023/12/29 06:35:27;;;;;;;0.77;0.77;;;;;;;1.80;100.00;99973.50;5070325;28;20293;-65
2023/12/29 06:37:53;;;;;;;1.33;1.33;;;;;;;1.81;100.00;99977.69;5070170;28;20212;-65
2023/12/29 06:40:20;;;;;;;0.70;0.70;;;;;;;1.83;100.00;99970.16;5070477;28;20745;-65
2023/12/29 06:42:48;;;;;;;0.70;0.70;;;;;;;1.77;100.00;99965.88;5069205;28;20204;-64
2023/12/29 06:45:15;;;;;;;0.90;0.90;;;;;;;1.80;100.00;99970.97;5070279;28;20651;-65
2023/12/29 06:47:42;;;;;;;1.07;1.07;;;;;;;1.80;100.00;99967.59;5069963;28;20208;-64
2023/12/29 06:50:12;;;;;;;0.90;0.90;;;;;;;1.75;100.00;99966.66;5070057;28;20195;-65
2023/12/29 06:52:39;;;;;;;0.60;0.60;;;;;;;1.80;100.00;99980.22;5069788;28;20608;-65
2023/12/29 06:55:07;;;;;;;0.70;0.70;;;;;;;1.81;100.00;99972.66;5074965;28;20192;-65
2023/12/29 06:57:33;;;;;;;1.00;1.00;;;;;;;1.84;100.00;99971.88;5075633;28;20207;-66
2023/12/29 07:00:01;;;;;;;0.90;0.90;;;;;;;1.87;100.00;99972.75;5073994;28;20219;-66
2023/12/29 07:02:28;;;;;;;0.67;0.67;;;;;;;1.95;100.00;99976.22;5076132;28;20293;-67
2023/12/29 07:04:55;;;;;;;1.63;1.63;;;;;;;1.92;100.00;99950.91;5074050;28;20200;-67
2023/12/29 07:07:22;;;;;;;1.90;1.67;;;;;;;2.07;100.00;99967.94;5074001;28;20264;-67
2023/12/29 07:09:48;;;;;;;0.60;0.60;;;;;;;2.05;100.00;99945.19;5073851;28;20199;-67
2023/12/29 07:12:15;;;;;;;0.60;0.60;;;;;;;2.22;100.00;99957.19;5081224;28;20199;-67
2023/12/29 07:14:42;;;;;;;0.83;0.83;;;;;;;2.27;100.00;99958.06;5070453;28;20213;-67
2023/12/29 07:17:10;;;;;;;0.83;0.83;;;;;;;2.37;100.00;99954.81;5072693;28;21439;-67
2023/12/29 07:19:37;;;;;;;1.00;1.00;;;;;;;2.44;100.00;99957.44;5072090;28;20696;-67
2023/12/29 07:22:05;;;;;;;1.60;1.50;;;;;;;2.45;100.00;99953.25;5073010;28;20228;-69
2023/12/29 07:24:33;;;;;;;1.93;1.93;;;;;;;2.57;100.00;99958.44;5069241;28;20253;-67
2023/12/29 07:27:00;;;;;;;1.37;1.37;;;;;;;2.53;100.00;99941.50;5073404;28;20200;-66
2023/12/29 07:29:26;;;;;;;0.63;0.63;;;;;;;2.61;100.00;99945.84;5071479;28;20286;-65
2023/12/29 07:31:53;;;;;;;1.43;1.43;;;;;;;2.66;100.00;99953.47;5071464;28;20196;-66
2023/12/29 07:34:21;;;;;;;0.80;0.80;;;;;;;2.66;100.00;99953.47;5067657;28;20650;-66
2023/12/29 07:36:48;;;;;;;0.67;0.67;;;;;;;2.68;100.00;99954.34;5067979;28;20200;-66
2023/12/29 07:39:15;;;;;;;1.53;1.53;;;;;;;2.71;100.00;99956.91;5070754;28;20291;-66
2023/12/29 07:41:42;;;;;;;1.13;1.13;;;;;;;2.74;100.00;99949.34;5071089;28;20204;-66
2023/12/29 07:44:11;;;;;;;0.60;0.60;;;;;;;2.80;100.00;99946.88;5071523;28;20192;-67
2023/12/29 07:46:38;;;;;;;0.90;0.90;;;;;;;2.82;100.00;99940.13;5070315;28;20204;-66
2023/12/29 07:49:05;;;;;;;0.80;0.80;;;;;;;2.86;100.00;99949.44;5070775;28;20196;-66
2023/12/29 07:51:33;;;;;;;0.60;0.60;;;;;;;2.92;100.00;99951.19;5071297;28;20289;-66
2023/12/29 07:54:00;;;;;;;0.80;0.80;;;;;;;2.97;100.00;99950.38;5071445;28;20218;-66
2023/12/29 07:56:27;;;;;;;0.57;0.57;;;;;;;3.06;100.00;99940.34;5071667;28;20207;-67
2023/12/29 07:58:53;;;;;;;0.70;0.70;;;;;;;3.14;100.00;99938.72;5070812;28;20699;-67
2023/12/29 08:01:20;;;;;;;0.90;0.90;;;;;;;3.25;100.00;99946.41;5073416;28;20655;-67
2023/12/29 08:03:47;;;;;;;1.13;1.13;;;;;;;3.36;100.00;99949.03;5067401;28;20208;-67
2023/12/29 08:06:14;;;;;;;1.20;1.10;;;;;;;3.48;100.00;99951.66;5066465;28;20257;-67
2023/12/29 08:08:42;;;;;;;1.23;1.23;;;;;;;3.62;100.00;99950.03;5070145;28;20689;-66
2023/12/29 08:11:15;;;;;;;2.93;1.17;;;;;;;3.71;100.00;99952.66;5071446;28;20270;-67
2023/12/29 08:13:41;;;;;;;0.60;0.60;;;;;;;3.89;100.00;99952.75;5069718;28;20255;-67
2023/12/29 08:16:08;;;;;;;0.83;0.83;;;;;;;3.98;100.00;99951.94;5070674;28;20203;-66
2023/12/29 08:18:35;;;;;;;0.93;0.93;;;;;;;4.07;100.00;99954.53;5070253;28;20220;-67
2023/12/29 08:21:02;;;;;;;1.23;1.23;;;;;;;4.18;100.00;99948.66;5071335;28;20206;-66
2023/12/29 08:23:29;;;;;;;0.60;0.60;;;;;;;4.31;100.00;99948.72;5073288;28;20672;-67
2023/12/29 08:25:58;;;;;;;1.37;1.37;;;;;;;4.43;100.00;99948.75;5069473;28;20204;-66
2023/12/29 08:28:25;;;;;;;0.73;0.73;;;;;;;4.56;100.00;99953.88;5069468;28;20223;-67
2023/12/29 08:30:52;;;;;;;0.87;0.87;;;;;;;4.75;100.00;99949.66;5073690;28;20207;-66
2023/12/29 08:33:19;;;;;;;3.10;2.30;;;;;;;4.82;100.00;99948.84;5068532;28;20287;-67
2023/12/29 08:35:46;;;;;;;0.70;0.70;;;;;;;4.97;100.00;99938.72;5071353;28;20258;-68
2023/12/29 08:38:13;;;;;;;2.07;2.07;;;;;;;5.12;100.00;99938.72;5070641;28;20693;-67
2023/12/29 08:40:41;;;;;;;0.70;0.70;;;;;;;5.35;100.00;99927.69;5069185;28;20196;-67
2023/12/29 08:43:09;;;;;;;0.80;0.80;;;;;;;5.47;100.00;99927.69;5068714;28;20253;-66
2023/12/29 08:45:36;;;;;;;1.10;1.10;;;;;;;5.62;100.00;99920.88;5070412;28;20204;-67
2023/12/29 08:48:03;;;;;;;1.17;1.17;;;;;;;5.82;100.00;99925.91;5070473;28;20265;-67
2023/12/29 08:50:30;;;;;;;5.10;2.97;;;;;;;5.90;100.00;99924.25;5069948;28;20231;-67
2023/12/29 08:52:56;;;;;;;4.70;1.57;;;;;;;6.04;100.00;99926.75;5070022;28;20289;-68
2023/12/29 08:55:23;;;;;;;1.00;1.00;;;;;;;6.18;100.00;99925.81;5070560;28;20212;-67
2023/12/29 08:57:50;;;;;;;2.97;2.60;;;;;;;6.34;100.00;99934.25;5068593;28;20634;-67
2023/12/29 09:00:18;;;;;;;1.70;1.60;;;;;;;6.45;100.00;99936.75;5070364;28;20273;-68
2023/12/29 09:02:46;;;;;;;8.20;1.87;;;;;;;6.67;100.00;99931.53;5068658;28;20196;-68
2023/12/29 09:05:13;;;;;;;0.90;0.90;;;;;;;6.84;100.00;99923.78;5071325;28;20253;-68
2023/12/29 09:07:39;;;;;;;0.90;0.90;;;;;;;6.94;100.00;99924.56;5069283;28;20631;-67
2023/12/29 09:10:10;;;;;;;1.27;1.27;;;;;;;7.04;100.00;99921.94;5065476;28;20261;-67
2023/12/29 09:12:37;;;;;;;1.40;1.40;;;;;;;7.09;98.90;99889.59;5072240;28;20280;-67
2023/12/29 09:15:05;;;;;;;1.37;1.17;;;;;;;7.33;99.68;99902.13;5070948;28;20215;-67
2023/12/29 09:17:34;;;;;;;4.13;3.73;;;;;;;7.57;99.37;99918.06;5067845;28;20664;-66
2023/12/29 09:20:00;;;;;;;2.37;1.87;;;;;;;7.72;97.59;99923.03;5067342;28;20572;-68
2023/12/29 09:22:27;;;;;;;2.33;2.17;;;;;;;7.74;97.45;99923.84;5066840;28;20205;-68
2023/12/29 09:24:55;;;;;;;4.57;2.00;;;;;;;7.95;97.70;99915.94;5068230;28;20672;-75
2023/12/29 09:27:21;;;;;;;5.37;2.00;;;;;;;8.13;97.24;99920.00;5069670;28;20208;-68
2023/12/29 09:29:48;;;;;;;1.80;1.80;;;;;;;8.11;96.13;99902.13;5071083;28;20200;-68
2023/12/29 09:32:15;;;;;;;5.90;2.07;;;;;;;8.38;95.24;99917.16;5071859;28;20199;-72
2023/12/29 09:34:43;;;;;;;1.67;1.63;;;;;;;8.50;93.54;99912.75;5068973;28;20203;-67
2023/12/29 09:37:10;;;;;;;2.20;2.20;;;;;;;8.60;92.22;99914.28;5068887;28;20250;-71
2023/12/29 09:39:37;;;;;;;2.47;1.90;;;;;;;8.70;93.33;99918.41;5064828;28;20219;-67
2023/12/29 09:42:06;;;;;;;3.27;1.57;;;;;;;8.78;92.03;99906.38;5069258;28;20200;-67
2023/12/29 09:44:37;;;;;;;0.93;0.93;;;;;;;8.79;90.72;99903.78;5067963;28;20230;-67
2023/12/29 09:47:04;;;;;;;1.90;1.83;;;;;;;8.87;90.61;99896.00;5067774;28;20203;-67
2023/12/29 09:49:37;;;;;;;1.93;1.80;;;;;;;8.94;90.46;99888.22;5067202;28;20762;-68
2023/12/29 09:52:07;;;;;;;4.70;2.53;;;;;;;9.00;89.76;99882.16;5069929;28;20302;-68
2023/12/29 09:54:36;;;;;;;3.27;1.47;;;;;;;9.08;90.74;99869.28;5068644;28;20277;-67
2023/12/29 09:57:04;;;;;;;2.50;2.20;;;;;;;9.17;90.63;99871.66;5068981;28;20200;-67
2023/12/29 09:59:36;;;;;;;2.63;2.50;;;;;;;9.24;89.99;99866.41;5069760;28;20219;-67
2023/12/29 10:02:03;;;;;;;3.60;2.07;;;;;;;9.32;90.29;99864.56;5065135;28;20298;-67
2023/12/29 10:04:30;;;;;;;2.47;2.27;;;;;;;9.48;89.41;99860.84;5070054;28;20204;-67
2023/12/29 10:07:03;;;;;;;2.50;2.33;;;;;;;9.57;88.83;99853.88;5068643;28;20345;-68
2023/12/29 10:09:33;;;;;;;2.00;1.90;;;;;;;9.66;88.91;99853.72;5068641;28;20207;-68
2023/12/29 10:12:03;;;;;;;1.37;1.37;;;;;;;9.67;88.59;99834.91;5071092;28;20196;-68
2023/12/29 10:14:38;;;;;;;1.10;1.10;;;;;;;9.77;88.73;99851.78;5068771;28;20257;-68
2023/12/29 10:17:15;;;;;;;1.63;1.63;;;;;;;9.85;88.73;99849.91;5071469;28;20203;-68
2023/12/29 10:19:50;;;;;;;2.00;1.90;;;;;;;9.92;89.38;99848.91;5069853;28;20211;-68
2023/12/29 10:22:40;;;;;;;3.80;1.90;;;;;;;10.05;88.22;99837.53;5070960;28;20207;-68
2023/12/29 10:25:09;;;;;;;1.90;1.90;;;;;;;10.15;87.56;99839.06;5069470;28;20200;-68
2023/12/29 10:27:36;;;;;;;5.43;1.80;;;;;;;10.17;87.71;99829.63;5072429;28;20218;-68
2023/12/29 10:30:03;;;;;;;1.70;1.67;;;;;;;10.26;86.35;99826.03;5074856;28;20257;-68
2023/12/29 10:32:30;;;;;;;1.73;1.63;;;;;;;10.34;86.34;99819.84;5074008;28;20652;-68
2023/12/29 10:35:09;;;;;;;1.77;1.73;;;;;;;10.36;86.02;99812.97;5071076;28;20208;-68
2023/12/29 10:37:36;;;;;;;2.23;2.13;;;;;;;10.59;85.34;99816.72;5074648;28;20228;-68
2023/12/29 10:40:03;;;;;;;2.17;1.43;;;;;;;10.65;83.08;99814.00;5070593;28;20216;-68
2023/12/29 10:42:32;;;;;;;1.43;1.43;;;;;;;10.76;82.82;99814.59;5071762;28;20208;-68
2023/12/29 10:45:07;;;;;;;1.23;1.23;;;;;;;10.89;81.42;99803.13;5073100;28;20196;-67
2023/12/29 10:47:34;;;;;;;1.83;1.73;;;;;;;10.98;80.23;99805.50;5073510;28;20603;-67
2023/12/29 10:50:04;;;;;;;2.33;1.77;;;;;;;11.06;80.34;99808.69;5069626;28;20200;-68
2023/12/29 10:52:33;;;;;;;2.17;1.97;;;;;;;11.10;79.17;99810.31;5069565;28;20318;-67
2023/12/29 10:55:07;;;;;;;1.73;1.63;;;;;;;11.20;78.34;99804.06;5064520;28;20205;-68
2023/12/29 10:57:36;;;;;;;1.20;1.20;;;;;;;11.25;79.19;99802.19;5068779;28;20211;-67
2023/12/29 11:00:03;;;;;;;2.23;2.10;;;;;;;11.30;77.38;99804.66;5070190;28;20639;-68
2023/12/29 11:02:30;;;;;;;2.77;1.40;;;;;;;11.38;76.66;99797.56;5073261;28;20741;-68
2023/12/29 11:05:06;;;;;;;1.60;1.40;;;;;;;11.46;76.79;99796.50;5067620;28;20204;-67
2023/12/29 11:07:34;;;;;;;1.33;1.27;;;;;;;11.48;77.06;99789.59;5068123;28;20207;-68
2023/12/29 11:10:03;;;;;;;1.37;1.37;;;;;;;11.55;77.46;99793.69;5069485;28;20208;-67
2023/12/29 11:12:33;;;;;;;3.83;2.40;;;;;;;11.60;78.42;99788.41;5067293;28;20205;-68
2023/12/29 11:15:03;;;;;;;1.90;1.80;;;;;;;11.63;78.49;99782.34;5070789;28;20291;-67
2023/12/29 11:17:32;;;;;;;3.20;2.40;;;;;;;11.74;78.54;99782.91;5069646;28;20196;-67
2023/12/29 11:20:00;;;;;;;2.37;2.17;;;;;;;11.75;78.43;99780.31;5070015;28;20704;-67
2023/12/29 11:22:29;;;;;;;1.43;1.43;;;;;;;11.83;77.46;99769.78;5063392;28;20694;-68
2023/12/29 11:24:58;;;;;;;1.47;1.20;;;;;;;11.94;75.00;99760.91;5060221;28;20282;-67
2023/12/29 11:27:30;;;;;;;2.27;2.17;;;;;;;12.05;75.13;99758.84;5065934;28;20204;-68
2023/12/29 11:29:58;;;;;;;1.63;1.50;;;;;;;12.01;74.85;99729.00;5065842;28;20204;-67
2023/12/29 11:32:34;;;;;;;1.73;1.10;;;;;;;12.16;75.42;99753.38;5065660;28;20512;-68
2023/12/29 11:35:11;;;;;;;2.70;1.70;;;;;;;12.23;73.91;99748.88;5063438;28;20206;-68
2023/12/29 11:38:01;;;;;;;3.97;1.47;;;;;;;12.27;74.73;99751.31;5068356;28;20208;-68